createdAt,value
2017-11-21T00:01:41.770Z,49.13
2017-11-21T00:04:08.613Z,52.40
2017-11-21T00:06:35.465Z,51.03
2017-11-21T00:09:02.642Z,49.63
2017-11-21T00:11:29.815Z,48.10
2017-11-21T00:13:56.650Z,53.33
2017-11-21T00:16:23.513Z,50.03
2017-11-21T00:18:50.651Z,52.72
2017-11-21T00:21:17.479Z,53.53
2017-11-21T00:23:44.333Z,53.13
2017-11-21T00:26:11.172Z,51.22
2017-11-21T00:28:38.027Z,52.90
2017-11-21T00:31:04.921Z,51.97
2017-11-21T00:33:31.789Z,54.83
2017-11-21T00:35:58.974Z,51.20
2017-11-21T00:38:25.832Z,49.50
2017-11-21T00:40:53.246Z,49.70
2017-11-21T00:43:20.206Z,45.65
2017-11-21T00:45:47.052Z,46.67
2017-11-21T00:48:13.874Z,46.22
2017-11-21T00:50:40.718Z,45.67
2017-11-21T00:53:07.564Z,50.90
2017-11-21T00:55:34.384Z,49.80
2017-11-21T00:58:01.433Z,48.70
2017-11-21T01:00:28.303Z,46.67
2017-11-21T01:02:55.181Z,47.33
2017-11-21T01:05:22.046Z,48.37
2017-11-21T01:07:48.913Z,45.00
2017-11-21T01:10:15.802Z,47.20
2017-11-21T01:12:42.950Z,45.73
2017-11-21T01:15:09.824Z,45.63
2017-11-21T01:17:36.664Z,42.53
2017-11-21T01:20:03.531Z,48.20
2017-11-21T01:22:30.734Z,51.05
2017-11-21T01:24:57.882Z,48.95
2017-11-21T01:27:24.733Z,44.88
2017-11-21T01:29:52.525Z,49.20
2017-11-21T01:32:19.558Z,50.63
2017-11-21T01:34:46.442Z,47.47
2017-11-21T01:37:13.631Z,54.03
2017-11-21T01:39:40.463Z,49.22
2017-11-21T01:42:07.320Z,48.15
2017-11-21T01:44:34.425Z,50.45
2017-11-21T01:47:01.289Z,48.50
2017-11-21T01:49:28.141Z,49.80
2017-11-21T01:51:55.302Z,52.95
2017-11-21T01:54:22.452Z,50.47
2017-11-21T01:56:49.611Z,54.20
2017-11-21T01:59:16.492Z,52.40
2017-11-21T02:01:43.325Z,55.42
2017-11-21T02:04:10.186Z,56.75
2017-11-21T02:06:37.290Z,60.30
2017-11-21T02:09:04.165Z,58.60
2017-11-21T02:11:31.021Z,56.80
2017-11-21T02:13:57.852Z,56.13
2017-11-21T02:16:24.696Z,56.10
2017-11-21T02:18:51.518Z,58.92
2017-11-21T02:21:18.379Z,57.62
2017-11-21T02:23:45.597Z,56.03
2017-11-21T02:26:12.749Z,60.53
2017-11-21T02:28:39.901Z,56.95
2017-11-21T02:31:07.049Z,58.50
2017-11-21T02:33:33.937Z,58.13
2017-11-21T02:36:01.140Z,61.95
2017-11-21T02:38:27.986Z,58.17
2017-11-21T02:40:55.143Z,61.60
2017-11-21T02:43:22.284Z,59.17
2017-11-21T02:45:49.167Z,64.10
2017-11-21T02:48:16.036Z,55.92
2017-11-21T02:50:42.949Z,53.90
2017-11-21T02:53:10.169Z,54.33
2017-11-21T02:55:37.070Z,51.60
2017-11-21T02:58:04.264Z,52.47
2017-11-21T03:00:31.417Z,51.92
2017-11-21T03:02:58.564Z,53.47
2017-11-21T03:05:25.727Z,50.20
2017-11-21T03:07:52.590Z,55.12
2017-11-21T03:10:19.475Z,52.90
2017-11-21T03:12:46.375Z,48.65
2017-11-21T03:15:13.600Z,54.65
2017-11-21T03:17:40.453Z,52.62
2017-11-21T03:20:07.393Z,51.57
2017-11-21T03:22:40.585Z,54.83
2017-11-21T03:25:13.343Z,51.25
2017-11-21T03:27:46.057Z,51.92
2017-11-21T03:30:12.937Z,49.00
2017-11-21T03:32:40.145Z,59.40
2017-11-21T03:35:06.976Z,51.55
2017-11-21T03:37:34.138Z,52.92
2017-11-21T03:40:01.026Z,51.50
2017-11-21T03:42:28.129Z,52.75
2017-11-21T03:44:55.013Z,52.80
2017-11-21T03:47:21.846Z,49.70
2017-11-21T03:49:48.712Z,48.47
2017-11-21T03:52:15.809Z,46.42
2017-11-21T03:54:42.961Z,47.38
2017-11-21T03:57:09.821Z,46.97
2017-11-21T03:59:36.708Z,44.40
2017-11-21T04:02:03.540Z,47.23
2017-11-21T04:04:30.420Z,43.00
2017-11-21T04:06:57.293Z,42.30
2017-11-21T04:09:24.124Z,43.28
2017-11-21T04:11:50.985Z,47.05
2017-11-21T04:14:18.118Z,48.22
2017-11-21T04:16:44.958Z,45.70
2017-11-21T04:19:11.818Z,48.60
2017-11-21T04:21:38.954Z,51.00
2017-11-21T04:24:05.826Z,46.03
2017-11-21T04:26:32.940Z,47.95
2017-11-21T04:28:59.853Z,47.05
2017-11-21T04:31:27.041Z,45.72
2017-11-21T04:33:54.194Z,47.00
2017-11-21T04:36:21.340Z,45.30
2017-11-21T04:38:48.164Z,46.58
2017-11-21T04:41:15.014Z,46.30
2017-11-21T04:43:42.172Z,43.30
2017-11-21T04:46:09.042Z,42.47
2017-11-21T04:48:35.906Z,41.83
2017-11-21T04:51:02.794Z,45.45
2017-11-21T04:53:29.957Z,43.95
2017-11-21T04:55:56.801Z,41.50
2017-11-21T04:58:23.699Z,41.78
2017-11-21T05:00:50.556Z,41.40
2017-11-21T05:03:17.745Z,41.13
2017-11-21T05:05:44.646Z,42.03
2017-11-21T05:08:11.489Z,40.05
2017-11-21T05:10:38.577Z,43.42
2017-11-21T05:13:05.415Z,47.20
2017-11-21T05:15:32.576Z,44.22
2017-11-21T05:17:59.726Z,42.67
2017-11-21T05:20:26.874Z,41.88
2017-11-21T05:22:53.752Z,47.67
2017-11-21T05:25:20.974Z,45.85
2017-11-21T05:27:47.857Z,46.10
2017-11-21T05:30:14.712Z,48.03
2017-11-21T05:32:56.497Z,47.97
2017-11-21T05:35:23.350Z,46.70
2017-11-21T05:37:50.189Z,46.63
2017-11-21T05:40:17.057Z,45.92
2017-11-21T05:42:44.228Z,47.05
2017-11-21T05:45:11.081Z,48.30
2017-11-21T05:47:37.958Z,50.10
2017-11-21T05:50:04.800Z,47.17
2017-11-21T05:52:32.014Z,47.65
2017-11-21T05:54:59.170Z,50.07
2017-11-21T05:57:26.262Z,53.53
2017-11-21T05:59:53.357Z,58.60
2017-11-21T06:02:20.241Z,52.58
2017-11-21T06:04:47.073Z,55.22
2017-11-21T06:07:13.896Z,67.57
2017-11-21T06:09:41.040Z,53.65
2017-11-21T06:12:07.876Z,52.72
2017-11-21T06:14:35.041Z,55.42
2017-11-21T06:17:01.900Z,56.00
2017-11-21T06:19:28.742Z,56.15
2017-11-21T06:21:55.568Z,56.95
2017-11-21T06:24:22.448Z,58.80
2017-11-21T06:26:49.510Z,57.30
2017-11-21T06:29:16.350Z,57.77
2017-11-21T06:31:43.230Z,55.80
2017-11-21T06:34:10.065Z,54.45
2017-11-21T06:36:37.238Z,52.65
2017-11-21T06:39:04.114Z,53.70
2017-11-21T06:41:30.929Z,53.10
2017-11-21T06:43:57.781Z,55.20
2017-11-21T06:46:24.663Z,52.67
2017-11-21T06:48:51.513Z,50.90
2017-11-21T06:51:18.367Z,52.92
2017-11-21T06:53:45.544Z,53.28
2017-11-21T06:56:12.394Z,53.75
2017-11-21T06:58:39.265Z,56.30
2017-11-21T07:01:06.105Z,58.00
2017-11-21T07:03:32.967Z,52.00
2017-11-21T07:06:00.123Z,51.47
2017-11-21T07:08:27.000Z,55.33
2017-11-21T07:10:53.868Z,53.10
2017-11-21T07:13:20.692Z,51.15
2017-11-21T07:15:47.562Z,49.90
2017-11-21T07:18:14.692Z,47.80
2017-11-21T07:20:41.570Z,50.35
2017-11-21T07:23:08.794Z,48.42
2017-11-21T07:25:35.659Z,47.58
2017-11-21T07:28:02.713Z,49.17
2017-11-21T07:30:29.832Z,47.13
2017-11-21T07:32:56.986Z,50.00
2017-11-21T07:35:24.138Z,53.67
2017-11-21T07:37:51.265Z,52.50
2017-11-21T07:40:18.139Z,51.97
2017-11-21T07:42:45.278Z,48.65
2017-11-21T07:45:12.130Z,48.17
2017-11-21T07:47:38.998Z,49.22
2017-11-21T07:50:05.854Z,48.38
2017-11-21T07:52:32.957Z,45.75
2017-11-21T07:54:59.815Z,47.80
2017-11-21T07:57:26.958Z,46.50
2017-11-21T07:59:53.833Z,51.50
2017-11-21T08:02:20.652Z,46.00
2017-11-21T08:04:47.499Z,44.40
2017-11-21T08:07:14.404Z,42.50
2017-11-21T08:09:41.582Z,43.47
2017-11-21T08:12:08.428Z,43.25
2017-11-21T08:14:35.317Z,44.85
2017-11-21T08:17:02.785Z,41.90
2017-11-21T08:19:29.986Z,44.40
2017-11-21T08:21:56.834Z,45.20
2017-11-21T08:24:23.971Z,43.37
2017-11-21T08:26:50.845Z,44.03
2017-11-21T08:29:18.074Z,40.45
2017-11-21T08:31:45.178Z,40.08
2017-11-21T08:34:12.405Z,41.05
2017-11-21T08:36:39.728Z,41.42
2017-11-21T08:39:06.883Z,42.88
2017-11-21T08:41:34.126Z,37.58
2017-11-21T08:44:01.428Z,40.47
2017-11-21T08:46:28.301Z,36.65
2017-11-21T08:48:55.145Z,36.42
2017-11-21T08:51:21.980Z,37.85
2017-11-21T08:53:48.846Z,38.65
2017-11-21T08:56:16.421Z,40.65
2017-11-21T08:58:43.342Z,41.00
2017-11-21T09:01:10.176Z,38.03
2017-11-21T09:03:37.318Z,39.15
2017-11-21T09:06:04.203Z,35.90
2017-11-21T09:08:31.342Z,36.70
2017-11-21T09:10:58.189Z,32.45
2017-11-21T09:13:25.069Z,35.58
2017-11-21T09:15:51.925Z,36.17
2017-11-21T09:18:18.782Z,35.95
2017-11-21T09:20:45.970Z,34.08
2017-11-21T09:23:12.846Z,35.15
2017-11-21T09:25:39.702Z,31.75
2017-11-21T09:28:06.591Z,32.00
2017-11-21T09:30:33.441Z,32.00
2017-11-21T09:33:00.598Z,33.40
2017-11-21T09:35:27.485Z,36.78
2017-11-21T09:37:54.337Z,33.60
2017-11-21T09:40:21.535Z,33.40
2017-11-21T09:42:48.683Z,32.63
2017-11-21T09:45:15.529Z,35.65
2017-11-21T09:47:42.673Z,32.28
2017-11-21T09:50:09.820Z,33.47
2017-11-21T09:52:36.649Z,32.50
2017-11-21T09:55:03.488Z,32.85
2017-11-21T09:57:30.366Z,32.13
2017-11-21T09:59:57.226Z,30.73
2017-11-21T10:02:24.106Z,29.80
2017-11-21T10:04:51.190Z,30.92
2017-11-21T10:07:18.340Z,31.12
2017-11-21T10:09:45.445Z,30.70
2017-11-21T10:12:12.350Z,29.52
2017-11-21T10:14:39.175Z,28.55
2017-11-21T10:17:06.334Z,31.83
2017-11-21T10:19:33.484Z,32.53
2017-11-21T10:22:00.316Z,30.25
2017-11-21T10:24:27.473Z,30.27
2017-11-21T10:26:54.556Z,29.00
2017-11-21T10:29:21.401Z,29.35
2017-11-21T10:31:48.270Z,30.08
2017-11-21T10:34:15.119Z,29.55
2017-11-21T10:36:42.305Z,27.95
2017-11-21T10:39:09.166Z,27.80
2017-11-21T10:41:36.069Z,27.95
2017-11-21T10:44:02.893Z,28.83
2017-11-21T10:46:30.087Z,27.90
2017-11-21T10:48:56.993Z,27.37
2017-11-21T10:51:23.885Z,28.55
2017-11-21T10:53:50.756Z,32.08
2017-11-21T10:56:17.616Z,29.37
2017-11-21T10:58:44.478Z,30.85
2017-11-21T11:01:11.332Z,31.15
2017-11-21T11:03:38.209Z,32.55
2017-11-21T11:06:05.111Z,30.88
2017-11-21T11:08:31.973Z,29.73
2017-11-21T11:10:58.845Z,30.45
2017-11-21T11:13:25.741Z,30.83
2017-11-21T11:15:52.633Z,29.23
2017-11-21T11:18:19.506Z,30.10
2017-11-21T11:20:46.709Z,29.00
2017-11-21T11:23:13.857Z,29.52
2017-11-21T11:25:40.805Z,27.55
2017-11-21T11:28:07.683Z,26.90
2017-11-21T11:30:34.809Z,28.70
2017-11-21T11:33:01.705Z,30.98
2017-11-21T11:35:28.568Z,31.60
2017-11-21T11:37:55.439Z,29.65
2017-11-21T11:40:22.685Z,32.50
2017-11-21T11:42:49.833Z,30.90
2017-11-21T11:45:17.083Z,29.05
2017-11-21T11:47:44.337Z,28.50
2017-11-21T11:50:11.493Z,28.45
2017-11-21T11:52:38.391Z,28.90
2017-11-21T11:55:05.280Z,29.63
2017-11-21T11:57:32.192Z,29.03
2017-11-21T11:59:59.056Z,29.50
2017-11-21T12:02:25.979Z,29.33
2017-11-21T12:04:52.861Z,28.87
2017-11-21T12:07:19.762Z,33.30
2017-11-21T12:09:46.698Z,32.30
2017-11-21T12:12:13.549Z,30.53
2017-11-21T12:14:40.664Z,32.97
2017-11-21T12:17:07.581Z,32.63
2017-11-21T12:19:34.510Z,33.55
2017-11-21T12:22:01.420Z,32.70
2017-11-21T12:24:28.328Z,33.88
2017-11-21T12:26:55.228Z,32.10
2017-11-21T12:29:22.146Z,32.05
2017-11-21T12:31:49.050Z,29.98
2017-11-21T12:34:16.196Z,32.00
2017-11-21T12:36:43.149Z,32.15
2017-11-21T12:39:10.047Z,33.17
2017-11-21T12:41:36.953Z,34.03
2017-11-21T12:44:03.862Z,33.60
2017-11-21T12:46:31.029Z,32.47
2017-11-21T12:48:57.922Z,33.30
2017-11-21T12:51:24.826Z,32.22
2017-11-21T12:53:51.842Z,32.80
2017-11-21T12:56:19.012Z,35.00
2017-11-21T12:58:46.170Z,31.27
2017-11-21T13:01:13.420Z,29.35
2017-11-21T13:03:40.285Z,32.67
2017-11-21T13:06:07.407Z,32.40
2017-11-21T13:08:34.419Z,31.77
2017-11-21T13:11:01.370Z,30.90
2017-11-21T13:13:28.248Z,34.78
2017-11-21T13:15:55.177Z,32.28
2017-11-21T13:18:22.344Z,33.78
2017-11-21T13:20:49.197Z,34.83
2017-11-21T13:23:16.129Z,32.28
2017-11-21T13:25:43.870Z,32.00
2017-11-21T13:28:11.166Z,32.03
2017-11-21T13:30:38.106Z,30.20
2017-11-21T13:33:05.245Z,30.77
2017-11-21T13:35:32.122Z,28.92
2017-11-21T13:37:59.341Z,33.83
2017-11-21T13:40:26.255Z,31.87
2017-11-21T13:42:53.140Z,32.72
2017-11-21T13:45:20.386Z,31.95
2017-11-21T13:47:47.273Z,31.50
2017-11-21T13:50:14.477Z,31.40
2017-11-21T13:52:41.738Z,33.17
2017-11-21T13:55:08.885Z,34.60
2017-11-21T13:57:35.775Z,33.05
2017-11-21T14:00:02.676Z,31.83
2017-11-21T14:02:29.584Z,28.90
2017-11-21T14:04:56.764Z,32.50
2017-11-21T14:07:23.720Z,31.73
2017-11-21T14:09:54.155Z,35.03
2017-11-21T14:12:22.314Z,33.67
2017-11-21T14:14:49.189Z,31.00
2017-11-21T14:17:16.307Z,32.00
2017-11-21T14:19:43.460Z,32.30
2017-11-21T14:22:11.460Z,32.63
2017-11-21T14:24:38.476Z,34.80
2017-11-21T14:27:05.321Z,36.50
2017-11-21T14:29:32.240Z,35.47
2017-11-21T14:31:59.415Z,37.53
2017-11-21T14:34:26.288Z,40.15
2017-11-21T14:36:53.181Z,41.00
2017-11-21T14:39:20.077Z,35.92
2017-11-21T14:41:47.302Z,38.33
2017-11-21T14:44:14.251Z,47.20
2017-11-21T14:46:41.108Z,42.15
2017-11-21T14:49:08.013Z,41.78
2017-11-21T14:51:34.936Z,40.35
2017-11-21T14:54:05.292Z,43.15
2017-11-21T14:56:33.744Z,39.42
2017-11-21T14:59:00.613Z,45.65
2017-11-21T15:01:27.520Z,44.10
2017-11-21T15:03:54.430Z,47.58
2017-11-21T15:06:21.571Z,44.78
2017-11-21T15:08:48.717Z,47.20
2017-11-21T15:11:15.873Z,44.60
2017-11-21T15:13:43.123Z,43.33
2017-11-21T15:16:10.018Z,48.10
2017-11-21T15:18:36.921Z,45.75
2017-11-21T15:21:03.804Z,45.00
2017-11-21T15:23:30.678Z,42.67
2017-11-21T15:25:57.590Z,45.15
2017-11-21T15:28:24.533Z,41.70
2017-11-21T15:30:51.401Z,45.45
2017-11-21T15:33:18.263Z,50.10
2017-11-21T15:35:45.140Z,55.22
2017-11-21T15:38:11.991Z,51.20
2017-11-21T15:40:38.823Z,50.15
2017-11-21T15:43:05.739Z,53.15
2017-11-21T15:45:32.905Z,56.92
2017-11-21T15:47:59.793Z,48.17
2017-11-21T15:50:27.005Z,47.95
2017-11-21T15:52:53.903Z,52.70
2017-11-21T15:55:20.764Z,58.00
2017-11-21T15:57:47.679Z,51.30
2017-11-21T16:00:14.886Z,51.08
2017-11-21T16:02:42.029Z,57.53
2017-11-21T16:05:08.910Z,53.63
2017-11-21T16:07:35.779Z,56.17
2017-11-21T16:10:02.599Z,59.40
2017-11-21T16:12:29.441Z,54.93
2017-11-21T16:14:56.317Z,61.70
2017-11-21T16:17:23.497Z,52.40
2017-11-21T16:19:50.408Z,50.35
2017-11-21T16:22:18.392Z,53.10
2017-11-21T16:24:46.318Z,62.55
2017-11-21T16:27:13.821Z,53.92
2017-11-21T16:29:40.972Z,58.23
2017-11-21T16:32:08.957Z,54.88
2017-11-21T16:34:37.977Z,57.62
2017-11-21T16:37:06.439Z,56.55
2017-11-21T16:39:34.313Z,53.92
2017-11-21T16:42:01.773Z,60.35
2017-11-21T16:44:29.240Z,61.30
2017-11-21T16:46:56.782Z,61.05
2017-11-21T16:49:24.628Z,59.03
2017-11-21T16:51:52.649Z,63.15
2017-11-21T16:54:20.344Z,55.20
2017-11-21T16:56:47.774Z,51.50
2017-11-21T16:59:15.731Z,55.05
2017-11-21T17:01:43.064Z,56.67
2017-11-21T17:04:10.517Z,52.25
2017-11-21T17:06:38.375Z,58.65
2017-11-21T17:09:05.948Z,63.87
2017-11-21T17:11:34.413Z,56.07
2017-11-21T17:14:02.313Z,57.50
2017-11-21T17:16:29.745Z,56.03
2017-11-21T17:18:58.271Z,54.43
2017-11-21T17:21:25.841Z,53.70
2017-11-21T17:23:53.029Z,49.17
2017-11-21T17:26:19.901Z,47.10
2017-11-21T17:28:46.795Z,55.90
2017-11-21T17:31:13.988Z,56.25
2017-11-21T17:33:41.137Z,48.55
2017-11-21T17:36:08.821Z,51.60
2017-11-21T17:38:36.872Z,50.72
2017-11-21T17:41:04.081Z,46.97
2017-11-21T17:43:32.166Z,45.97
2017-11-21T17:46:00.499Z,44.60
2017-11-21T17:48:27.917Z,45.08
2017-11-21T17:50:56.790Z,41.80
2017-11-21T17:53:25.994Z,49.10
2017-11-21T17:55:55.232Z,38.93
2017-11-21T17:58:24.275Z,48.40
2017-11-21T18:00:52.296Z,40.70
2017-11-21T18:03:19.843Z,65.07
2017-11-21T18:05:47.326Z,41.53
2017-11-21T18:08:16.341Z,39.72
2017-11-21T18:10:43.804Z,35.85
2017-11-21T18:13:13.153Z,36.92
2017-11-21T18:15:40.814Z,40.53
2017-11-21T18:18:09.039Z,40.00
2017-11-21T18:20:38.175Z,37.43
2017-11-21T18:23:05.620Z,38.85
2017-11-21T18:25:34.346Z,35.30
2017-11-21T18:28:01.789Z,33.08
2017-11-21T18:30:29.877Z,34.65
2017-11-21T18:33:01.055Z,36.30
2017-11-21T18:35:28.460Z,33.35
2017-11-21T18:37:56.504Z,36.75
2017-11-21T18:40:24.587Z,35.70
2017-11-21T18:42:52.388Z,34.10
2017-11-21T18:45:19.939Z,34.67
2017-11-21T18:47:47.182Z,33.80
2017-11-21T18:50:32.049Z,32.85
2017-11-21T18:52:58.964Z,33.80
2017-11-21T18:55:26.039Z,31.95
2017-11-21T18:57:52.892Z,33.93
2017-11-21T19:00:19.741Z,35.80
2017-11-21T19:02:46.600Z,33.67
2017-11-21T19:05:13.417Z,35.08
2017-11-21T19:07:40.298Z,34.97
2017-11-21T19:10:07.419Z,34.22
2017-11-21T19:12:34.566Z,36.47
2017-11-21T19:15:01.408Z,36.55
2017-11-21T19:17:28.557Z,40.25
2017-11-21T19:19:55.406Z,35.03
2017-11-21T19:22:22.544Z,35.17
2017-11-21T19:24:49.413Z,35.10
2017-11-21T19:27:16.542Z,37.05
2017-11-21T19:29:43.693Z,35.72
2017-11-21T19:32:10.516Z,34.40
2017-11-21T19:34:38.263Z,34.25
2017-11-21T19:37:05.152Z,34.55
2017-11-21T19:39:32.006Z,35.28
2017-11-21T19:41:58.841Z,36.75
2017-11-21T19:44:25.701Z,41.03
2017-11-21T19:46:52.930Z,40.03
2017-11-21T19:49:20.080Z,34.50
2017-11-21T19:51:47.231Z,35.83
2017-11-21T19:54:14.046Z,44.42
2017-11-21T19:56:41.113Z,38.60
2017-11-21T19:59:07.980Z,37.28
2017-11-21T20:01:35.108Z,35.53
2017-11-21T20:04:02.006Z,37.67
2017-11-21T20:06:28.860Z,36.67
2017-11-21T20:08:55.696Z,37.60
2017-11-21T20:11:22.721Z,39.53
2017-11-21T20:13:49.585Z,39.20
2017-11-21T20:16:16.679Z,35.65
2017-11-21T20:18:43.833Z,36.42
2017-11-21T20:21:10.718Z,35.17
2017-11-21T20:23:37.533Z,36.07
2017-11-21T20:26:04.392Z,39.88
2017-11-21T20:28:31.259Z,39.00
2017-11-21T20:30:58.190Z,38.45
2017-11-21T20:33:25.053Z,37.80
2017-11-21T20:35:51.938Z,41.60
2017-11-21T20:38:18.791Z,38.53
2017-11-21T20:40:45.648Z,43.75
2017-11-21T20:43:12.741Z,41.03
2017-11-21T20:45:39.654Z,44.53
2017-11-21T20:48:06.496Z,38.65
2017-11-21T20:50:33.340Z,41.50
2017-11-21T20:53:00.172Z,42.47
2017-11-21T20:55:27.307Z,41.17
2017-11-21T20:57:54.160Z,38.95
2017-11-21T21:00:21.015Z,37.58
2017-11-21T21:02:48.136Z,40.40
2017-11-21T21:05:15.279Z,36.97
2017-11-21T21:07:42.161Z,40.88
2017-11-21T21:10:09.019Z,36.55
2017-11-21T21:12:35.917Z,37.53
2017-11-21T21:15:02.753Z,34.20
2017-11-21T21:17:29.808Z,35.17
2017-11-21T21:19:56.676Z,33.33
2017-11-21T21:22:23.494Z,36.70
2017-11-21T21:24:50.359Z,32.83
2017-11-21T21:27:23.630Z,32.38
2017-11-21T21:29:50.722Z,36.55
2017-11-21T21:32:17.552Z,30.20
2017-11-21T21:34:44.389Z,33.72
2017-11-21T21:37:11.522Z,32.38
2017-11-21T21:39:38.675Z,37.58
2017-11-21T21:42:05.819Z,32.67
2017-11-21T21:44:32.702Z,33.00
2017-11-21T21:46:59.547Z,33.30
2017-11-21T21:49:26.425Z,35.88
2017-11-21T21:51:53.602Z,36.10
2017-11-21T21:54:20.451Z,31.87
2017-11-21T21:56:47.333Z,34.07
2017-11-21T21:59:14.432Z,35.33
2017-11-21T22:01:41.294Z,32.35
2017-11-21T22:04:08.326Z,30.08
2017-11-21T22:06:36.099Z,28.55
2017-11-21T22:09:04.087Z,35.42
2017-11-21T22:11:32.017Z,34.45
2017-11-21T22:13:59.870Z,32.28
2017-11-21T22:16:27.978Z,34.28
2017-11-21T22:18:55.556Z,37.70
2017-11-21T22:21:22.976Z,38.17
2017-11-21T22:23:52.547Z,35.47
2017-11-21T22:26:20.748Z,32.47
2017-11-21T22:28:50.220Z,36.72
2017-11-21T22:31:17.893Z,32.58
2017-11-21T22:33:47.017Z,36.05
2017-11-21T22:36:16.261Z,33.55
2017-11-21T22:38:43.542Z,31.45
2017-11-21T22:41:11.174Z,28.67
2017-11-21T22:43:38.568Z,32.40
2017-11-21T22:46:05.876Z,31.87
2017-11-21T22:48:33.835Z,29.70
2017-11-21T22:51:01.272Z,34.92
2017-11-21T22:53:28.464Z,27.90
2017-11-21T22:55:55.739Z,32.67
2017-11-21T22:58:23.371Z,33.75
2017-11-21T23:00:51.957Z,32.17
2017-11-21T23:03:19.710Z,35.10
2017-11-21T23:05:47.305Z,35.72
2017-11-21T23:09:25.971Z,32.47
2017-11-21T23:11:54.053Z,31.50
2017-11-21T23:14:27.802Z,31.33
2017-11-21T23:16:55.310Z,34.13
2017-11-21T23:19:22.476Z,33.15
2017-11-21T23:21:49.342Z,37.55
2017-11-21T23:24:16.238Z,32.17
2017-11-21T23:26:43.070Z,32.75
2017-11-21T23:29:09.953Z,32.80
2017-11-21T23:31:37.106Z,42.60
2017-11-21T23:34:04.013Z,31.87
2017-11-21T23:36:30.872Z,30.63
2017-11-21T23:38:57.767Z,33.78
2017-11-21T23:41:24.781Z,29.23
2017-11-21T23:43:51.712Z,27.60
2017-11-21T23:46:18.544Z,26.43
2017-11-21T23:48:45.389Z,29.55
2017-11-21T23:51:12.242Z,24.37
2017-11-21T23:53:39.084Z,21.73
2017-11-21T23:56:05.955Z,20.05
2017-11-21T23:58:32.780Z,21.30
